createdAt,value
2018-12-20T00:00:44.462Z,25.03
2018-12-20T00:03:12.193Z,25.90
2018-12-20T00:05:39.879Z,26.03
2018-12-20T00:08:07.604Z,29.33
2018-12-20T00:10:35.332Z,23.77
2018-12-20T00:13:03.017Z,24.63
2018-12-20T00:15:31.454Z,26.23
2018-12-20T00:17:59.130Z,25.90
2018-12-20T00:20:26.760Z,25.27
2018-12-20T00:22:55.381Z,27.40
2018-12-20T00:25:23.213Z,25.77
2018-12-20T00:27:50.895Z,26.70
2018-12-20T00:30:19.408Z,25.00
2018-12-20T00:32:47.104Z,25.37
2018-12-20T00:35:14.819Z,29.37
2018-12-20T00:37:42.562Z,26.43
2018-12-20T00:40:10.197Z,27.57
2018-12-20T00:42:37.814Z,27.20
2018-12-20T00:45:06.633Z,35.40
2018-12-20T00:47:35.292Z,24.73
2018-12-20T00:50:02.946Z,25.90
2018-12-20T00:52:30.578Z,27.13
2018-12-20T00:54:58.223Z,25.20
2018-12-20T00:57:27.074Z,26.30
2018-12-20T00:59:55.297Z,29.83
2018-12-20T01:02:23.024Z,27.27
2018-12-20T01:04:50.814Z,30.67
2018-12-20T01:07:18.684Z,26.57
2018-12-20T01:09:47.245Z,27.50
2018-12-20T01:12:14.885Z,27.90
2018-12-20T01:14:45.489Z,26.10
2018-12-20T01:17:12.404Z,30.10
2018-12-20T01:19:40.071Z,29.23
2018-12-20T01:22:07.840Z,24.20
2018-12-20T01:24:35.579Z,28.33
2018-12-20T01:27:04.265Z,29.83
2018-12-20T01:29:32.102Z,29.27
2018-12-20T01:32:00.008Z,30.20
2018-12-20T01:34:27.898Z,28.70
2018-12-20T01:36:56.957Z,30.03
2018-12-20T01:39:25.727Z,30.90
2018-12-20T01:41:53.426Z,28.30
2018-12-20T01:44:22.079Z,31.63
2018-12-20T01:46:50.512Z,29.23
2018-12-20T01:49:18.909Z,31.43
2018-12-20T01:51:46.546Z,30.53
2018-12-20T01:54:14.328Z,29.60
2018-12-20T01:56:43.121Z,28.40
2018-12-20T01:59:11.668Z,29.53
2018-12-20T02:01:39.435Z,30.07
2018-12-20T02:04:08.059Z,29.10
2018-12-20T02:06:36.562Z,29.20
2018-12-20T02:09:07.234Z,29.70
2018-12-20T02:11:35.756Z,28.77
2018-12-20T02:14:03.645Z,29.83
2018-12-20T02:16:32.358Z,31.63
2018-12-20T02:19:00.067Z,31.60
2018-12-20T02:21:27.874Z,33.10
2018-12-20T02:23:56.339Z,27.70
2018-12-20T02:26:24.049Z,30.30
2018-12-20T02:28:52.651Z,31.57
2018-12-20T02:31:20.330Z,29.20
2018-12-20T02:33:48.134Z,31.47
2018-12-20T02:36:16.804Z,28.63
2018-12-20T02:38:45.366Z,30.53
2018-12-20T02:41:13.248Z,29.80
2018-12-20T02:43:42.337Z,28.57
2018-12-20T02:46:11.044Z,30.80
2018-12-20T02:48:38.964Z,28.80
2018-12-20T02:51:07.114Z,28.67
2018-12-20T02:53:35.702Z,30.10
2018-12-20T02:56:04.617Z,31.00
2018-12-20T02:58:33.185Z,27.57
2018-12-20T03:01:01.881Z,29.87
2018-12-20T03:03:29.617Z,32.00
2018-12-20T03:05:57.381Z,30.53
2018-12-20T03:08:25.525Z,31.00
2018-12-20T03:10:55.094Z,30.07
2018-12-20T03:13:23.833Z,29.27
2018-12-20T03:15:52.442Z,27.70
2018-12-20T03:18:21.196Z,28.70
2018-12-20T03:20:49.080Z,30.90
2018-12-20T03:23:16.936Z,29.90
2018-12-20T03:25:45.578Z,27.40
2018-12-20T03:28:14.114Z,28.77
2018-12-20T03:30:41.831Z,29.83
2018-12-20T03:33:10.730Z,28.70
2018-12-20T03:35:39.443Z,28.87
2018-12-20T03:38:07.095Z,29.10
2018-12-20T03:40:35.226Z,26.90
2018-12-20T03:43:03.027Z,26.40
2018-12-20T03:45:30.835Z,28.30
2018-12-20T03:47:59.647Z,29.40
2018-12-20T03:50:27.622Z,29.30
2018-12-20T03:52:56.332Z,28.80
2018-12-20T03:55:25.174Z,27.50
2018-12-20T03:57:52.823Z,30.90
2018-12-20T04:00:20.625Z,29.57
2018-12-20T04:02:49.315Z,27.23
2018-12-20T04:05:17.281Z,27.20
2018-12-20T04:07:44.996Z,26.87
2018-12-20T04:10:12.854Z,29.30
2018-12-20T04:12:41.606Z,27.73
2018-12-20T04:15:09.378Z,29.40
2018-12-20T04:17:37.096Z,26.73
2018-12-20T04:20:05.426Z,28.53
2018-12-20T04:22:33.406Z,28.67
2018-12-20T04:25:01.209Z,30.10
2018-12-20T04:27:28.976Z,28.60
2018-12-20T04:29:57.706Z,26.87
2018-12-20T04:32:26.559Z,28.43
2018-12-20T04:34:55.377Z,28.60
2018-12-20T04:37:23.282Z,27.20
2018-12-20T04:39:51.353Z,29.50
2018-12-20T04:42:19.886Z,28.50
2018-12-20T04:44:48.605Z,29.67
2018-12-20T04:47:16.420Z,28.60
2018-12-20T04:49:45.140Z,30.47
2018-12-20T04:52:12.830Z,29.50
2018-12-20T04:54:41.250Z,30.83
2018-12-20T04:57:09.773Z,28.57
2018-12-20T04:59:38.376Z,31.13
2018-12-20T05:02:06.235Z,26.03
2018-12-20T05:04:33.900Z,27.80
2018-12-20T05:07:01.521Z,32.23
2018-12-20T05:09:30.447Z,28.97
2018-12-20T05:11:59.018Z,29.37
2018-12-20T05:14:26.862Z,29.70
2018-12-20T05:16:56.775Z,27.90
2018-12-20T05:19:26.241Z,30.30
2018-12-20T05:21:54.017Z,30.10
2018-12-20T05:24:21.942Z,28.57
2018-12-20T05:26:49.811Z,28.53
2018-12-20T05:29:17.688Z,29.63
2018-12-20T05:31:45.388Z,26.47
2018-12-20T05:34:13.028Z,29.07
2018-12-20T05:36:40.858Z,29.35
2018-12-20T05:39:09.342Z,28.23
2018-12-20T05:41:37.784Z,31.80
2018-12-20T05:44:06.745Z,30.10
2018-12-20T05:46:34.446Z,29.20
2018-12-20T05:49:02.183Z,28.80
2018-12-20T05:51:29.904Z,30.20
2018-12-20T05:53:58.496Z,30.97
2018-12-20T05:56:26.927Z,31.27
2018-12-20T05:58:55.591Z,29.43
2018-12-20T06:01:23.292Z,32.20
2018-12-20T06:03:52.102Z,28.00
2018-12-20T06:06:19.873Z,31.50
2018-12-20T06:08:48.507Z,27.20
2018-12-20T06:11:17.041Z,31.40
2018-12-20T06:13:44.737Z,28.17
2018-12-20T06:16:13.125Z,28.93
2018-12-20T06:18:41.030Z,29.60
2018-12-20T06:21:09.523Z,27.10
2018-12-20T06:23:37.178Z,26.47
2018-12-20T06:26:04.872Z,28.73
2018-12-20T06:28:32.499Z,29.37
2018-12-20T06:31:01.051Z,29.77
2018-12-20T06:33:28.696Z,28.07
2018-12-20T06:35:56.318Z,28.90
2018-12-20T06:38:24.624Z,28.50
2018-12-20T06:40:52.282Z,29.73
2018-12-20T06:43:20.043Z,29.73
2018-12-20T06:45:47.759Z,28.77
2018-12-20T06:48:15.386Z,29.47
2018-12-20T06:50:43.048Z,27.53
2018-12-20T06:53:10.669Z,28.97
2018-12-20T06:55:38.295Z,29.40
2018-12-20T06:58:06.117Z,30.90
2018-12-20T07:00:33.751Z,28.70
2018-12-20T07:03:02.286Z,28.97
2018-12-20T07:05:29.948Z,29.77
2018-12-20T07:07:58.475Z,30.57
2018-12-20T07:10:27.012Z,26.30
2018-12-20T07:12:55.861Z,28.30
2018-12-20T07:15:23.858Z,27.07
2018-12-20T07:17:51.515Z,27.67
2018-12-20T07:20:19.137Z,30.63
2018-12-20T07:22:46.787Z,27.07
2018-12-20T07:25:15.230Z,26.93
2018-12-20T07:27:42.846Z,29.40
2018-12-20T07:30:12.043Z,29.40
2018-12-20T07:32:39.742Z,30.57
2018-12-20T07:35:07.731Z,27.60
2018-12-20T07:37:36.169Z,31.70
2018-12-20T07:40:07.369Z,29.47
2018-12-20T07:42:34.988Z,27.20
2018-12-20T07:45:03.724Z,32.13
2018-12-20T07:47:31.355Z,28.97
2018-12-20T07:49:58.982Z,28.73
2018-12-20T07:52:27.549Z,29.17
2018-12-20T07:54:55.891Z,29.50
2018-12-20T07:57:25.400Z,29.27
2018-12-20T07:59:54.735Z,31.33
2018-12-20T08:02:22.355Z,28.73
2018-12-20T08:04:49.998Z,32.00
2018-12-20T08:07:18.463Z,27.53
2018-12-20T08:09:46.088Z,29.00
2018-12-20T08:12:14.590Z,28.73
2018-12-20T08:14:43.121Z,29.23
2018-12-20T08:17:10.786Z,30.03
2018-12-20T08:19:38.412Z,27.70
2018-12-20T08:22:06.073Z,28.60
2018-12-20T08:24:33.702Z,27.10
2018-12-20T08:27:01.361Z,29.63
2018-12-20T08:29:29.133Z,29.60
2018-12-20T08:31:56.751Z,31.27
2018-12-20T08:34:26.001Z,28.60
2018-12-20T08:36:55.002Z,27.47
2018-12-20T08:39:22.671Z,29.70
2018-12-20T08:41:50.290Z,28.70
2018-12-20T08:44:17.931Z,27.97
2018-12-20T08:46:45.553Z,25.50
2018-12-20T08:49:13.294Z,28.37
2018-12-20T08:51:48.840Z,29.60
2018-12-20T08:54:11.373Z,28.17
2018-12-20T08:56:39.813Z,26.80
2018-12-20T08:59:08.304Z,29.70
2018-12-20T09:01:35.930Z,30.80
2018-12-20T09:04:04.507Z,27.70
2018-12-20T09:06:32.944Z,27.73
2018-12-20T09:09:00.633Z,28.00
2018-12-20T09:11:28.264Z,29.20
2018-12-20T09:13:57.126Z,27.17
2018-12-20T09:16:25.232Z,27.73
2018-12-20T09:18:52.853Z,26.13
2018-12-20T09:21:20.483Z,27.50
2018-12-20T09:23:48.112Z,25.63
2018-12-20T09:26:16.589Z,26.33
2018-12-20T09:28:44.226Z,26.50
2018-12-20T09:31:11.880Z,26.13
2018-12-20T09:33:39.510Z,24.60
2018-12-20T09:36:07.126Z,27.00
2018-12-20T09:38:35.568Z,28.37
2018-12-20T09:41:03.419Z,29.20
2018-12-20T09:43:31.857Z,27.20
2018-12-20T09:45:59.486Z,24.37
2018-12-20T09:48:27.951Z,26.23
2018-12-20T09:50:56.536Z,25.47
2018-12-20T09:53:24.882Z,24.10
2018-12-20T09:55:52.507Z,27.43
2018-12-20T09:58:20.138Z,25.43
2018-12-20T10:00:47.756Z,26.90
2018-12-20T10:03:15.378Z,23.53
2018-12-20T10:05:43.013Z,24.80
2018-12-20T10:08:11.548Z,25.67
2018-12-20T10:10:39.170Z,24.77
2018-12-20T10:13:06.792Z,22.53
2018-12-20T10:15:34.421Z,24.00
2018-12-20T10:18:03.019Z,27.60
2018-12-20T10:20:30.664Z,25.70
2018-12-20T10:22:58.294Z,24.80
2018-12-20T10:25:27.799Z,25.93
2018-12-20T10:27:56.194Z,23.53
2018-12-20T10:30:23.818Z,23.63
2018-12-20T10:32:51.480Z,24.70
2018-12-20T10:35:19.155Z,25.93
2018-12-20T10:37:47.711Z,24.40
2018-12-20T10:40:15.417Z,23.50
2018-12-20T10:42:43.131Z,21.50
2018-12-20T10:45:10.747Z,25.13
2018-12-20T10:47:39.295Z,24.30
2018-12-20T10:50:07.986Z,22.67
2018-12-20T10:52:35.614Z,24.40
2018-12-20T10:55:04.811Z,22.53
2018-12-20T10:57:32.445Z,23.20
2018-12-20T11:00:00.909Z,23.30
2018-12-20T11:05:39.641Z,21.90
2018-12-20T11:08:13.637Z,21.60
2018-12-20T11:10:41.309Z,20.33
2018-12-20T11:13:11.294Z,22.03
2018-12-20T11:15:38.952Z,22.50
2018-12-20T11:18:07.386Z,21.63
2018-12-20T11:20:35.894Z,21.57
2018-12-20T11:23:03.580Z,24.67
2018-12-20T11:25:31.222Z,21.60
2018-12-20T11:27:58.844Z,19.40
2018-12-20T11:30:26.462Z,20.93
2018-12-20T11:32:54.835Z,21.30
2018-12-20T11:35:22.472Z,20.57
2018-12-20T11:37:50.098Z,21.87
2018-12-20T11:40:17.708Z,20.40
2018-12-20T11:42:45.376Z,20.10
2018-12-20T11:45:13.818Z,22.07
2018-12-20T11:47:45.841Z,23.10
2018-12-20T11:50:11.168Z,20.10
2018-12-20T11:52:42.485Z,20.47
2018-12-20T11:55:10.365Z,20.33
2018-12-20T11:57:38.006Z,20.60
2018-12-20T12:00:09.523Z,21.10
2018-12-20T12:02:37.182Z,19.33
2018-12-20T12:05:05.007Z,18.77
2018-12-20T12:07:33.552Z,19.63
2018-12-20T12:10:02.055Z,18.50
2018-12-20T12:12:30.619Z,18.43
2018-12-20T12:14:58.281Z,18.53
2018-12-20T12:17:26.391Z,22.80
2018-12-20T12:19:55.308Z,17.30
2018-12-20T12:22:25.065Z,19.23
2018-12-20T12:24:52.723Z,20.20
2018-12-20T12:27:20.360Z,18.37
2018-12-20T12:29:48.019Z,17.53
2018-12-20T12:32:15.640Z,20.60
2018-12-20T12:34:43.316Z,22.23
2018-12-20T12:37:11.099Z,17.80
2018-12-20T12:39:38.942Z,20.70
2018-12-20T12:42:07.464Z,19.37
2018-12-20T12:44:35.288Z,20.73
2018-12-20T12:47:04.894Z,17.63
2018-12-20T12:49:32.514Z,18.60
2018-12-20T12:52:00.149Z,18.70
2018-12-20T12:54:28.690Z,19.43
2018-12-20T12:56:56.328Z,20.33
2018-12-20T12:59:23.973Z,19.30
2018-12-20T13:01:51.593Z,18.90
2018-12-20T13:04:19.216Z,18.07
2018-12-20T13:06:46.843Z,18.93
2018-12-20T13:09:14.525Z,18.10
2018-12-20T13:11:42.146Z,20.47
2018-12-20T13:14:09.777Z,20.27
2018-12-20T13:16:37.418Z,18.80
2018-12-20T13:19:05.053Z,20.03
2018-12-20T13:21:33.000Z,18.63
2018-12-20T13:24:00.611Z,19.27
2018-12-20T13:26:28.235Z,16.77
2018-12-20T13:28:56.892Z,18.37
2018-12-20T13:31:25.343Z,18.47
2018-12-20T13:33:52.967Z,18.50
2018-12-20T13:36:20.752Z,18.40
2018-12-20T13:38:48.386Z,17.80
2018-12-20T13:41:16.041Z,18.43
2018-12-20T13:43:44.628Z,18.37
2018-12-20T13:46:12.422Z,18.33
2018-12-20T13:48:40.062Z,16.90
2018-12-20T13:51:07.695Z,16.50
2018-12-20T13:53:35.290Z,17.53
2018-12-20T13:56:02.959Z,17.30
2018-12-20T13:58:31.687Z,17.90
2018-12-20T14:01:00.367Z,18.10
2018-12-20T14:03:28.055Z,18.10
2018-12-20T14:05:56.592Z,18.27
2018-12-20T14:08:25.185Z,19.53
2018-12-20T14:10:52.810Z,19.20
2018-12-20T14:13:21.232Z,18.40
2018-12-20T14:15:49.773Z,17.23
2018-12-20T14:18:18.413Z,19.73
2018-12-20T14:20:46.828Z,18.30
2018-12-20T14:23:14.458Z,18.37
2018-12-20T14:25:42.937Z,20.97
2018-12-20T14:28:10.566Z,18.43
2018-12-20T14:30:38.228Z,19.30
2018-12-20T14:33:05.863Z,19.50
2018-12-20T14:35:33.511Z,19.90
2018-12-20T14:38:01.152Z,18.90
2018-12-20T14:40:28.771Z,20.60
2018-12-20T14:42:56.395Z,20.20
2018-12-20T14:45:24.872Z,19.17
2018-12-20T14:47:52.527Z,23.55
2018-12-20T14:50:20.146Z,24.50
2018-12-20T14:52:48.580Z,21.70
2018-12-20T14:55:16.223Z,20.40
2018-12-20T14:57:43.844Z,20.60
2018-12-20T15:00:11.538Z,20.97
2018-12-20T15:02:39.162Z,19.90
2018-12-20T15:05:07.280Z,19.40
2018-12-20T15:07:34.919Z,19.10
2018-12-20T15:10:02.932Z,19.70
2018-12-20T15:12:30.558Z,20.10
2018-12-20T15:14:58.187Z,20.10
2018-12-20T15:17:26.437Z,20.20
2018-12-20T15:19:55.086Z,22.70
2018-12-20T15:22:22.723Z,20.07
2018-12-20T15:24:50.425Z,20.47
2018-12-20T15:27:18.038Z,19.53
2018-12-20T15:29:45.667Z,20.63
2018-12-20T15:32:13.294Z,18.33
2018-12-20T15:34:40.925Z,18.90
2018-12-20T15:37:09.418Z,17.30
2018-12-20T15:39:37.047Z,20.20
2018-12-20T15:42:04.691Z,18.00
2018-12-20T15:44:32.319Z,20.10
2018-12-20T15:46:59.940Z,22.07
2018-12-20T15:49:27.570Z,21.17
2018-12-20T15:51:57.125Z,24.50
2018-12-20T15:54:25.341Z,22.90
2018-12-20T15:56:53.015Z,24.57
2018-12-20T15:59:20.640Z,25.50
2018-12-20T16:01:48.264Z,22.40
2018-12-20T16:04:16.898Z,22.03
2018-12-20T16:06:45.117Z,21.90
2018-12-20T16:09:12.757Z,23.10
2018-12-20T16:11:40.396Z,22.67
2018-12-20T16:14:08.091Z,21.10
2018-12-20T16:16:35.731Z,20.53
2018-12-20T16:19:05.067Z,22.47
2018-12-20T16:21:33.041Z,22.27
2018-12-20T16:24:00.654Z,24.17
2018-12-20T16:26:28.278Z,23.20
2018-12-20T16:28:56.716Z,23.33
2018-12-20T16:31:24.482Z,21.20
2018-12-20T16:33:52.121Z,22.33
2018-12-20T16:36:19.747Z,20.50
2018-12-20T16:38:47.373Z,20.73
2018-12-20T16:41:15.071Z,20.37
2018-12-20T16:43:42.689Z,22.73
2018-12-20T16:46:11.397Z,20.60
2018-12-20T16:48:39.067Z,20.37
2018-12-20T16:51:06.699Z,20.30
2018-12-20T16:53:34.334Z,21.93
2018-12-20T16:56:02.884Z,20.70
2018-12-20T16:58:30.516Z,20.70
2018-12-20T17:00:59.032Z,20.20
2018-12-20T17:03:26.653Z,19.40
2018-12-20T17:05:54.913Z,18.90
2018-12-20T17:08:22.528Z,19.20
2018-12-20T17:10:50.156Z,19.20
2018-12-20T17:13:17.788Z,18.30
2018-12-20T17:15:45.404Z,18.40
2018-12-20T17:18:13.038Z,19.23
2018-12-20T17:20:40.695Z,19.17
2018-12-20T17:23:08.484Z,18.63
2018-12-20T17:25:36.095Z,19.47
2018-12-20T17:28:03.805Z,17.77
2018-12-20T17:30:31.518Z,21.37
2018-12-20T17:32:59.208Z,17.67
2018-12-20T17:35:27.831Z,19.17
2018-12-20T17:37:55.599Z,18.67
2018-12-20T17:40:24.558Z,18.50
2018-12-20T17:42:52.185Z,19.70
2018-12-20T17:45:19.802Z,19.67
2018-12-20T17:47:47.434Z,18.83
2018-12-20T17:50:15.066Z,17.90
2018-12-20T17:52:42.701Z,21.23
2018-12-20T17:55:10.422Z,16.67
2018-12-20T17:57:38.047Z,19.40
2018-12-20T18:00:14.945Z,19.93
2018-12-20T18:02:43.523Z,19.60
2018-12-20T18:05:11.327Z,18.60
2018-12-20T18:07:39.144Z,20.77
2018-12-20T18:10:08.779Z,18.53
2018-12-20T18:12:37.229Z,20.47
2018-12-20T18:15:06.531Z,18.10
2018-12-20T18:17:34.208Z,18.63
2018-12-20T18:20:02.647Z,17.43
2018-12-20T18:22:31.055Z,17.93
2018-12-20T18:24:58.672Z,18.43
2018-12-20T18:27:27.412Z,15.90
2018-12-20T18:29:57.007Z,17.50
2018-12-20T18:32:25.348Z,16.70
2018-12-20T18:34:53.810Z,18.33
2018-12-20T18:37:21.438Z,17.60
2018-12-20T18:39:49.059Z,17.40
2018-12-20T18:42:16.842Z,16.23
2018-12-20T18:44:44.676Z,18.70
2018-12-20T18:49:57.698Z,16.43
2018-12-20T18:52:26.307Z,15.37
2018-12-20T18:54:54.933Z,17.50
2018-12-20T18:57:22.546Z,17.33
2018-12-20T18:59:50.213Z,16.77
2018-12-20T19:02:18.749Z,18.82
2018-12-20T19:04:47.290Z,16.30
2018-12-20T19:07:15.974Z,16.77
2018-12-20T19:09:43.601Z,16.10
2018-12-20T19:12:11.263Z,15.20
2018-12-20T19:14:38.907Z,16.20
2018-12-20T19:17:06.595Z,17.50
2018-12-20T19:19:35.296Z,16.77
2018-12-20T19:22:03.109Z,15.27
2018-12-20T19:24:30.708Z,16.70
2018-12-20T19:26:59.150Z,16.53
2018-12-20T19:29:26.779Z,15.87
2018-12-20T19:31:56.196Z,15.47
2018-12-20T19:34:23.953Z,16.20
2018-12-20T19:36:51.738Z,15.00
2018-12-20T19:39:19.418Z,15.47
2018-12-20T19:41:47.215Z,14.67
2018-12-20T19:44:15.024Z,14.27
2018-12-20T19:46:42.644Z,13.30
2018-12-20T19:49:10.543Z,15.13
2018-12-20T19:51:38.607Z,13.60
2018-12-20T19:54:07.217Z,15.20
2018-12-20T19:56:34.889Z,12.33
2018-12-20T19:59:02.553Z,13.90
2018-12-20T20:01:33.108Z,14.27
2018-12-20T20:04:00.947Z,15.37
2018-12-20T20:06:28.559Z,14.80
2018-12-20T20:08:56.206Z,16.50
2018-12-20T20:11:25.088Z,14.73
2018-12-20T20:13:52.782Z,15.70
2018-12-20T20:16:20.474Z,15.07
2018-12-20T20:18:48.111Z,15.63
2018-12-20T20:21:16.791Z,15.40
2018-12-20T20:23:44.584Z,13.53
2018-12-20T20:26:12.393Z,13.27
2018-12-20T20:28:40.048Z,14.30
2018-12-20T20:31:08.486Z,13.10
2018-12-20T20:33:36.972Z,14.70
2018-12-20T20:36:04.601Z,14.87
2018-12-20T20:38:33.294Z,15.40
2018-12-20T20:41:01.106Z,13.80
2018-12-20T20:43:28.777Z,13.50
2018-12-20T20:45:57.270Z,12.37
2018-12-20T20:48:25.008Z,12.77
2018-12-20T20:50:52.817Z,12.90
2018-12-20T20:53:21.634Z,13.93
2018-12-20T20:55:49.437Z,13.53
2018-12-20T20:58:17.231Z,12.97
2018-12-20T21:00:45.020Z,12.70
2018-12-20T21:03:12.640Z,13.27
2018-12-20T21:05:40.283Z,17.53
2018-12-20T21:08:07.911Z,17.30
2018-12-20T21:10:35.551Z,20.17
2018-12-20T21:13:03.503Z,16.10
2018-12-20T21:15:31.296Z,15.00
2018-12-20T21:17:59.111Z,15.40
2018-12-20T21:20:30.920Z,13.60
2018-12-20T21:22:57.396Z,13.53
2018-12-20T21:25:25.976Z,12.90
2018-12-20T21:27:54.787Z,13.30
2018-12-20T21:30:22.927Z,12.83
2018-12-20T21:32:50.579Z,11.73
2018-12-20T21:35:18.369Z,12.80
2018-12-20T21:37:46.023Z,11.40
2018-12-20T21:40:13.655Z,12.67
2018-12-20T21:42:41.287Z,11.90
2018-12-20T21:45:09.011Z,11.37
2018-12-20T21:47:36.671Z,11.97
2018-12-20T21:50:06.190Z,11.00
2018-12-20T21:52:34.905Z,10.73
2018-12-20T21:55:02.598Z,9.43
2018-12-20T21:57:30.242Z,10.93
2018-12-20T22:00:01.275Z,9.90
2018-12-20T22:02:27.601Z,9.30
2018-12-20T22:04:55.619Z,9.40
2018-12-20T22:07:23.263Z,9.40
2018-12-20T22:09:50.946Z,10.60
2018-12-20T22:12:18.627Z,8.60
2018-12-20T22:14:46.257Z,8.83
2018-12-20T22:17:14.133Z,9.23
2018-12-20T22:19:41.770Z,8.20
2018-12-20T22:22:09.387Z,9.30
2018-12-20T22:24:37.006Z,8.47
2018-12-20T22:27:04.689Z,9.03
2018-12-20T22:29:33.152Z,9.13
2018-12-20T22:32:00.866Z,8.90
2018-12-20T22:34:28.658Z,7.87
2018-12-20T22:36:56.294Z,8.70
2018-12-20T22:39:25.163Z,7.60
2018-12-20T22:41:52.841Z,8.07
2018-12-20T22:44:20.635Z,8.40
2018-12-20T22:46:48.252Z,7.67
2018-12-20T22:49:15.906Z,7.90
2018-12-20T22:51:44.449Z,7.40
2018-12-20T22:54:13.162Z,7.63
2018-12-20T22:56:40.971Z,7.63
2018-12-20T22:59:08.770Z,7.43
2018-12-20T23:01:36.561Z,8.30
2018-12-20T23:04:04.382Z,7.20
2018-12-20T23:06:32.000Z,6.67
2018-12-20T23:08:59.809Z,6.50
2018-12-20T23:11:27.668Z,7.30
2018-12-20T23:13:56.394Z,7.90
2018-12-20T23:16:24.901Z,6.30
2018-12-20T23:18:52.711Z,6.43
2018-12-20T23:21:21.271Z,6.80
2018-12-20T23:23:48.933Z,6.97
2018-12-20T23:26:16.727Z,7.10
2018-12-20T23:28:44.435Z,5.90
2018-12-20T23:31:12.193Z,7.00
2018-12-20T23:33:40.031Z,6.10
2018-12-20T23:36:07.842Z,6.57
2018-12-20T23:38:35.626Z,6.43
2018-12-20T23:41:04.418Z,6.17
2018-12-20T23:43:32.214Z,6.97
2018-12-20T23:46:00.678Z,6.17
2018-12-20T23:48:28.297Z,5.60
2018-12-20T23:50:56.831Z,6.13
2018-12-20T23:53:26.035Z,6.40
2018-12-20T23:55:54.810Z,6.30
2018-12-20T23:58:22.492Z,5.00
